Time;durP1;ratioP1;P1;durP2;ratioP2;P2;SDS_P1;SDS_P2;PMS_P1;PMS_P2;Temp;Humidity;BMP_temperature;BMP_pressure;BME280_temperature;BME280_humidity;BME280_pressure;Samples;Min_cycle;Max_cycle;Signal;HPM_P1;HPM_P2
2021/10/01 00:01:28;;;;;;;4.38;2.47;;;;;;;;;;6219384;28;20050;-81
2021/10/01 00:04:30;;;;;;;4.65;2.58;;;;;;;;;;6218931;28;20233;-81
2021/10/01 00:07:32;;;;;;;5.90;2.97;;;;;;;;;;6189639;28;20060;-82
2021/10/01 00:10:33;;;;;;;7.30;2.70;;;;;;;;;;6219835;28;20131;-81
2021/10/01 00:13:37;;;;;;;3.92;2.70;;;;;;;;;;6164034;28;20054;-81
2021/10/01 00:16:39;;;;;;;5.22;2.85;;;;;;;;;;6169156;28;20516;-80
2021/10/01 00:19:41;;;;;;;6.15;2.95;;;;;;;;;;6186834;28;20055;-82
2021/10/01 00:22:42;;;;;;;6.85;2.47;;;;;;;;;;6170475;28;20048;-80
2021/10/01 00:25:44;;;;;;;4.68;2.35;;;;;;;;;;6173271;28;20043;-81
2021/10/01 00:28:46;;;;;;;3.63;2.25;;;;;;;;;;6164534;28;20092;-81
2021/10/01 00:31:47;;;;;;;4.03;2.13;;;;;;;;;;6169149;28;20046;-81
2021/10/01 00:34:51;;;;;;;4.20;2.00;;;;;;;;;;6186062;28;20042;-81
2021/10/01 00:37:52;;;;;;;4.65;2.40;;;;;;;;;;6189009;28;20034;-81
2021/10/01 00:40:55;;;;;;;3.97;1.73;;;;;;;;;;6170670;28;20416;-81
2021/10/01 00:43:57;;;;;;;5.97;2.20;;;;;;;;;;6202216;28;20057;-82
2021/10/01 00:46:58;;;;;;;4.85;2.03;;;;;;;;;;6169519;28;20038;-81
2021/10/01 00:50:00;;;;;;;4.13;2.33;;;;;;;;;;6188291;28;20077;-81
2021/10/01 00:53:02;;;;;;;3.97;2.45;;;;;;;;;;6169652;28;20050;-81
2021/10/01 00:56:04;;;;;;;5.88;2.42;;;;;;;;;;6201973;28;20041;-81
2021/10/01 00:59:06;;;;;;;3.60;2.33;;;;;;;;;;6186172;28;20085;-81
2021/10/01 01:02:08;;;;;;;3.95;2.15;;;;;;;;;;6165206;28;20550;-81
2021/10/01 01:05:10;;;;;;;4.68;2.50;;;;;;;;;;6186327;28;20046;-80
2021/10/01 01:08:15;;;;;;;4.15;2.38;;;;;;;;;;6186559;28;20181;-81
2021/10/01 01:11:30;;;;;;;5.30;2.60;;;;;;;;;;6166464;28;20038;-82
2021/10/01 01:14:54;;;;;;;6.15;2.22;;;;;;;;;;6202194;28;20721;-81
2021/10/01 01:17:56;;;;;;;;;;;;;;;;;;6184459;28;20053;-82
2021/10/01 01:20:59;;;;;;;4.53;2.40;;;;;;;;;;6186194;28;19965;-81
2021/10/01 01:24:55;;;;;;;2.80;1.90;;;;;;;;;;6185146;28;20057;-81
2021/10/01 01:28:10;;;;;;;3.92;2.08;;;;;;;;;;6144708;28;20042;-81
2021/10/01 01:31:20;;;;;;;5.03;2.00;;;;;;;;;;6183782;28;20125;-81
2021/10/01 01:34:34;;;;;;;3.58;1.70;;;;;;;;;;6185370;28;20090;-81
2021/10/01 01:37:56;;;;;;;3.75;1.92;;;;;;;;;;6217482;28;20050;-81
2021/10/01 01:41:02;;;;;;;3.28;2.00;;;;;;;;;;6182441;28;20069;-81
2021/10/01 01:44:05;;;;;;;3.75;2.10;;;;;;;;;;6191444;28;20524;-82
2021/10/01 01:47:07;;;;;;;5.35;2.28;;;;;;;;;;6190751;28;20045;-82
2021/10/01 01:50:09;;;;;;;3.08;2.00;;;;;;;;;;6224766;28;20439;-81
2021/10/01 01:53:13;;;;;;;3.72;1.85;;;;;;;;;;6190936;28;20047;-82
2021/10/01 01:56:17;;;;;;;5.15;2.63;;;;;;;;;;6184830;28;20542;-81
2021/10/01 01:59:19;;;;;;;;;;;;;;;;;;6224404;28;20069;-82
2021/10/01 02:02:22;;;;;;;5.53;2.70;;;;;;;;;;6182654;28;19922;-81
2021/10/01 02:05:24;;;;;;;5.10;2.10;;;;;;;;;;6190928;28;20440;-82
2021/10/01 02:08:27;;;;;;;3.97;2.00;;;;;;;;;;6167356;28;20478;-82
2021/10/01 02:11:30;;;;;;;3.05;1.70;;;;;;;;;;6182168;28;20496;-81
2021/10/01 02:14:35;;;;;;;5.30;2.15;;;;;;;;;;6174300;28;20074;-82
2021/10/01 02:17:43;;;;;;;4.13;1.83;;;;;;;;;;6188840;28;20504;-81
2021/10/01 02:20:45;;;;;;;3.22;1.95;;;;;;;;;;6215692;28;20140;-82
2021/10/01 02:23:48;;;;;;;5.30;2.10;;;;;;;;;;6190157;28;20062;-80
2021/10/01 02:27:03;;;;;;;6.18;2.80;;;;;;;;;;6221833;28;20173;-82
2021/10/01 02:30:12;;;;;;;3.38;1.80;;;;;;;;;;6174210;28;20049;-82
2021/10/01 02:33:22;;;;;;;5.18;2.40;;;;;;;;;;6188720;28;20050;-82
2021/10/01 02:36:24;;;;;;;5.15;2.00;;;;;;;;;;6190301;28;20121;-83
2021/10/01 02:39:26;;;;;;;4.43;2.55;;;;;;;;;;6221514;28;20050;-84
2021/10/01 02:42:28;;;;;;;3.58;2.33;;;;;;;;;;6189354;28;20047;-81
2021/10/01 02:45:30;;;;;;;3.30;2.00;;;;;;;;;;6205594;28;20078;-81
2021/10/01 02:48:35;;;;;;;4.78;2.47;;;;;;;;;;6186234;28;20046;-81
2021/10/01 02:51:42;;;;;;;4.70;1.95;;;;;;;;;;6205812;28;20133;-83
2021/10/01 02:55:01;;;;;;;3.92;2.17;;;;;;;;;;6187082;28;20054;-84
2021/10/01 02:58:12;;;;;;;5.85;2.30;;;;;;;;;;6184924;28;20154;-81
2021/10/01 03:01:15;;;;;;;3.35;2.45;;;;;;;;;;6187808;28;20035;-81
2021/10/01 03:04:19;;;;;;;2.95;2.15;;;;;;;;;;6162151;28;20570;-81
2021/10/01 03:07:23;;;;;;;3.50;1.90;;;;;;;;;;6188830;28;20490;-81
2021/10/01 03:10:25;;;;;;;4.43;2.22;;;;;;;;;;6221246;28;20050;-81
2021/10/01 03:13:28;;;;;;;2.78;2.13;;;;;;;;;;6186718;28;20042;-81
2021/10/01 03:16:32;;;;;;;3.15;2.25;;;;;;;;;;6186914;28;20057;-81
2021/10/01 03:19:37;;;;;;;5.65;2.40;;;;;;;;;;6187902;28;20101;-81
2021/10/01 03:22:40;;;;;;;5.63;2.10;;;;;;;;;;6187580;28;20133;-81
2021/10/01 03:25:42;;;;;;;3.47;2.40;;;;;;;;;;6219947;28;20046;-81
2021/10/01 03:28:45;;;;;;;3.70;2.00;;;;;;;;;;6187144;28;20104;-81
2021/10/01 03:31:48;;;;;;;3.22;2.08;;;;;;;;;;6187665;28;20042;-81
2021/10/01 03:34:50;;;;;;;3.95;2.00;;;;;;;;;;6171487;28;20150;-81
2021/10/01 03:37:53;;;;;;;5.18;2.40;;;;;;;;;;6183773;28;20077;-81
2021/10/01 03:41:00;;;;;;;2.38;2.10;;;;;;;;;;6187091;28;20519;-81
2021/10/01 03:44:03;;;;;;;6.05;2.47;;;;;;;;;;6181682;28;20049;-81
2021/10/01 03:47:05;;;;;;;3.42;1.70;;;;;;;;;;6185639;28;20042;-81
2021/10/01 03:50:08;;;;;;;2.85;2.10;;;;;;;;;;6167723;28;20065;-81
2021/10/01 03:53:11;;;;;;;3.13;2.22;;;;;;;;;;6174418;28;20050;-81
2021/10/01 03:56:16;;;;;;;2.47;1.90;;;;;;;;;;6213022;28;20050;-81
2021/10/01 03:59:18;;;;;;;4.28;2.00;;;;;;;;;;6185270;28;20441;-81
2021/10/01 04:02:20;;;;;;;5.38;2.40;;;;;;;;;;6163238;28;20053;-81
2021/10/01 04:05:22;;;;;;;5.40;2.33;;;;;;;;;;6183790;28;20049;-81
2021/10/01 04:08:23;;;;;;;6.20;3.08;;;;;;;;;;6184198;28;20073;-81
2021/10/01 04:11:25;;;;;;;5.95;2.95;;;;;;;;;;6168175;28;20415;-81
2021/10/01 04:14:27;;;;;;;7.35;2.35;;;;;;;;;;6185267;28;20511;-81
2021/10/01 04:17:31;;;;;;;6.55;2.85;;;;;;;;;;6185060;28;20050;-81
2021/10/01 04:20:34;;;;;;;7.32;2.55;;;;;;;;;;6186013;28;20711;-81
2021/10/01 04:23:37;;;;;;;4.38;2.30;;;;;;;;;;6185160;28;20061;-81
2021/10/01 04:26:57;;;;;;;11.07;3.53;;;;;;;;;;6194773;28;20038;-81
2021/10/01 04:30:00;;;;;;;10.00;3.40;;;;;;;;;;6163107;28;20047;-82
2021/10/01 04:33:12;;;;;;;7.88;3.33;;;;;;;;;;6145676;28;20047;-81
2021/10/01 04:36:14;;;;;;;11.50;3.63;;;;;;;;;;6138943;28;20043;-82
2021/10/01 04:39:16;;;;;;;12.05;3.20;;;;;;;;;;6138696;28;20050;-82
2021/10/01 04:42:18;;;;;;;7.00;2.97;;;;;;;;;;6157706;28;20042;-82
2021/10/01 04:45:20;;;;;;;6.60;2.88;;;;;;;;;;6176592;28;20475;-82
2021/10/01 04:48:22;;;;;;;8.27;2.60;;;;;;;;;;6197409;28;20078;-82
2021/10/01 04:51:23;;;;;;;6.15;2.63;;;;;;;;;;6170722;28;20046;-83
2021/10/01 04:54:26;;;;;;;7.63;2.45;;;;;;;;;;6185386;28;20681;-82
2021/10/01 04:57:28;;;;;;;6.88;2.50;;;;;;;;;;6187313;28;20038;-83
2021/10/01 05:00:48;;;;;;;5.43;2.38;;;;;;;;;;6162299;28;20043;-82
2021/10/01 05:04:19;;;;;;;5.20;2.58;;;;;;;;;;6167275;28;20412;-82
2021/10/01 05:07:40;;;;;;;5.43;2.20;;;;;;;;;;6188287;28;20038;-82
2021/10/01 05:11:00;;;;;;;5.10;2.65;;;;;;;;;;6186067;28;20050;-82
2021/10/01 05:14:23;;;;;;;7.03;2.63;;;;;;;;;;6184611;28;20058;-82
2021/10/01 05:17:48;;;;;;;5.53;2.92;;;;;;;;;;6188612;28;20054;-82
2021/10/01 05:21:08;;;;;;;5.85;2.75;;;;;;;;;;6217668;28;20049;-82
2021/10/01 05:24:25;;;;;;;4.43;2.30;;;;;;;;;;6203304;28;20050;-81
2021/10/01 05:27:27;;;;;;;5.97;2.63;;;;;;;;;;6191311;28;20439;-82
2021/10/01 05:30:29;;;;;;;4.22;2.60;;;;;;;;;;6192816;28;20120;-81
2021/10/01 05:33:31;;;;;;;5.88;2.47;;;;;;;;;;6186782;28;20051;-83
2021/10/01 05:36:33;;;;;;;4.82;2.70;;;;;;;;;;6189855;28;20129;-82
2021/10/01 05:39:35;;;;;;;3.22;2.38;;;;;;;;;;6190717;28;20052;-82
2021/10/01 05:42:37;;;;;;;5.03;3.05;;;;;;;;;;6175579;28;20412;-81
2021/10/01 05:45:40;;;;;;;3.90;2.58;;;;;;;;;;6161596;28;20051;-82
2021/10/01 05:49:02;;;;;;;3.25;2.42;;;;;;;;;;6192723;28;20042;-82
2021/10/01 05:52:36;;;;;;;5.15;2.65;;;;;;;;;;6192881;28;20067;-85
2021/10/01 05:55:57;;;;;;;4.38;2.60;;;;;;;;;;6217744;28;20050;-82
2021/10/01 05:59:38;;;;;;;7.03;3.05;;;;;;;;;;6213066;28;20065;-84
2021/10/01 06:02:42;;;;;;;4.45;2.85;;;;;;;;;;6197338;28;20077;-85
2021/10/01 06:05:44;;;;;;;10.20;4.72;;;;;;;;;;6192481;28;20476;-82
2021/10/01 06:08:45;;;;;;;6.70;4.40;;;;;;;;;;6225473;28;20073;-81
2021/10/01 06:11:47;;;;;;;8.77;4.65;;;;;;;;;;6190827;28;20639;-82
2021/10/01 06:14:49;;;;;;;7.90;5.03;;;;;;;;;;6190466;28;20042;-81
2021/10/01 06:17:51;;;;;;;10.77;6.55;;;;;;;;;;6189302;28;20050;-83
2021/10/01 06:20:52;;;;;;;7.03;4.43;;;;;;;;;;6191674;28;20054;-84
2021/10/01 06:23:54;;;;;;;8.45;5.20;;;;;;;;;;6192052;28;20105;-86
2021/10/01 06:26:56;;;;;;;11.52;7.90;;;;;;;;;;6190742;28;20496;-83
2021/10/01 06:29:58;;;;;;;7.68;4.90;;;;;;;;;;6189647;28;20492;-83
2021/10/01 06:33:00;;;;;;;8.07;4.60;;;;;;;;;;6185881;28;20125;-85
2021/10/01 06:36:03;;;;;;;79.82;32.03;;;;;;;;;;6191230;28;20050;-82
2021/10/01 06:39:06;;;;;;;46.15;19.48;;;;;;;;;;6168572;28;20113;-85
2021/10/01 06:42:08;;;;;;;83.10;33.70;;;;;;;;;;6190168;28;20049;-82
2021/10/01 06:45:10;;;;;;;20.98;10.25;;;;;;;;;;6194431;28;20053;-83
2021/10/01 07:21:36;;;;;;;40.88;16.23;;;;;;;;;;6231980;28;20038;-87
2021/10/01 08:18:52;;;;;;;5.53;2.70;;;;;;;;;;6178170;28;20042;-88
2021/10/01 08:21:40;;;;;;;3.95;2.38;;;;;;;;;;6168858;28;20042;-83
2021/10/01 08:24:48;;;;;;;5.07;2.67;;;;;;;;;;6166584;28;20047;-84
2021/10/01 08:27:51;;;;;;;3.80;2.60;;;;;;;;;;6181541;28;20042;-85
2021/10/01 08:30:53;;;;;;;4.05;2.03;;;;;;;;;;6191536;28;20068;-84
2021/10/01 08:33:56;;;;;;;4.37;2.63;;;;;;;;;;6173147;28;20046;-85
2021/10/01 08:36:58;;;;;;;5.07;2.03;;;;;;;;;;6173598;28;20043;-83
2021/10/01 08:40:00;;;;;;;4.75;3.45;;;;;;;;;;6200658;28;20419;-82
2021/10/01 08:43:17;;;;;;;4.28;1.95;;;;;;;;;;6202517;28;20046;-82
2021/10/01 08:46:19;;;;;;;1.90;1.70;;;;;;;;;;6192608;28;20049;-84
2021/10/01 08:49:23;;;;;;;3.45;1.90;;;;;;;;;;6189635;28;20049;-82
2021/10/01 08:52:25;;;;;;;3.00;1.20;;;;;;;;;;6203289;28;20043;-84
2021/10/01 08:55:28;;;;;;;4.40;1.73;;;;;;;;;;6186328;28;20042;-82
2021/10/01 08:58:30;;;;;;;4.47;1.77;;;;;;;;;;6196045;28;20177;-81
2021/10/01 09:01:32;;;;;;;3.15;1.70;;;;;;;;;;6194466;28;20052;-83
2021/10/01 09:04:34;;;;;;;2.07;1.03;;;;;;;;;;6203574;28;20049;-82
2021/10/01 09:07:36;;;;;;;3.27;1.27;;;;;;;;;;6183214;28;20050;-83
2021/10/01 09:10:38;;;;;;;3.42;1.30;;;;;;;;;;6177167;28;20049;-82
2021/10/01 09:13:41;;;;;;;4.72;1.60;;;;;;;;;;6192529;28;20048;-79
2021/10/01 09:16:44;;;;;;;3.05;1.20;;;;;;;;;;6187518;28;20496;-81
2021/10/01 09:19:47;;;;;;;3.17;1.23;;;;;;;;;;6191700;28;20046;-80
2021/10/01 09:22:49;;;;;;;3.50;1.10;;;;;;;;;;6189194;28;20042;-81
2021/10/01 09:26:05;;;;;;;2.70;0.85;;;;;;;;;;6185961;28;20066;-80
2021/10/01 09:29:08;;;;;;;2.75;0.90;;;;;;;;;;6186279;28;20073;-80
2021/10/01 09:32:11;;;;;;;2.80;0.90;;;;;;;;;;6204388;28;20047;-86
2021/10/01 09:35:14;;;;;;;;;;;;;;;;;;6207982;28;20074;-86
2021/10/01 09:38:17;;;;;;;;;;;;;;;;;;6194809;28;20445;-82
2021/10/01 09:41:25;;;;;;;1.60;0.73;;;;;;;;;;6192163;28;19925;-86
2021/10/01 09:44:29;;;;;;;3.53;0.63;;;;;;;;;;6200270;28;20058;-86
2021/10/01 09:47:46;;;;;;;3.75;0.95;;;;;;;;;;6192782;28;20063;-85
2021/10/01 09:50:48;;;;;;;3.15;0.98;;;;;;;;;;6196978;28;20061;-84
2021/10/01 09:53:51;;;;;;;2.10;0.70;;;;;;;;;;6193162;28;20039;-87
2021/10/01 09:56:58;;;;;;;1.10;1.00;;;;;;;;;;6188978;28;20460;-84
2021/10/01 10:00:00;;;;;;;2.47;0.90;;;;;;;;;;6173807;28;20043;-85
2021/10/01 10:03:01;;;;;;;2.38;0.93;;;;;;;;;;6184466;28;20117;-84
2021/10/01 10:06:06;;;;;;;3.50;0.90;;;;;;;;;;6198768;28;20058;-87
2021/10/01 10:09:07;;;;;;;2.08;0.70;;;;;;;;;;6211615;28;20077;-86
2021/10/01 10:12:13;;;;;;;2.92;0.85;;;;;;;;;;6197821;28;20057;-86
2021/10/01 10:15:17;;;;;;;5.25;0.90;;;;;;;;;;6197714;28;20050;-86
2021/10/01 10:18:19;;;;;;;1.67;0.70;;;;;;;;;;6184368;28;20034;-85
2021/10/01 10:21:20;;;;;;;2.67;0.80;;;;;;;;;;6202748;28;20053;-84
2021/10/01 10:24:22;;;;;;;3.33;0.90;;;;;;;;;;6227332;28;20039;-84
2021/10/01 10:27:27;;;;;;;1.48;0.73;;;;;;;;;;6205607;28;20583;-83
2021/10/01 10:30:29;;;;;;;2.03;0.80;;;;;;;;;;6172954;28;20047;-83
2021/10/01 10:33:40;;;;;;;2.00;0.70;;;;;;;;;;6180349;28;20042;-84
2021/10/01 10:36:47;;;;;;;2.47;1.00;;;;;;;;;;6232724;28;20057;-85
2021/10/01 10:39:53;;;;;;;3.67;0.75;;;;;;;;;;6180388;28;20909;-86
2021/10/01 10:43:02;;;;;;;4.28;0.80;;;;;;;;;;6192114;28;20047;-86
2021/10/01 10:46:04;;;;;;;2.30;0.60;;;;;;;;;;6193299;28;20242;-86
2021/10/01 10:49:19;;;;;;;3.45;0.70;;;;;;;;;;6192836;28;20117;-85
2021/10/01 10:52:20;;;;;;;1.85;0.80;;;;;;;;;;6187104;28;20046;-85
2021/10/01 10:55:27;;;;;;;2.20;0.70;;;;;;;;;;6190402;28;20088;-86
2021/10/01 10:58:30;;;;;;;1.35;0.70;;;;;;;;;;6190192;28;20049;-83
2021/10/01 11:01:34;;;;;;;0.82;0.65;;;;;;;;;;6219169;28;20492;-84
2021/10/01 11:04:38;;;;;;;3.15;0.85;;;;;;;;;;6193039;28;20531;-85
2021/10/01 11:07:50;;;;;;;2.05;0.60;;;;;;;;;;6191115;28;20038;-85
2021/10/01 11:10:52;;;;;;;3.28;1.00;;;;;;;;;;6218235;28;20696;-85
2021/10/01 11:14:23;;;;;;;1.10;0.63;;;;;;;;;;6193856;28;20046;-87
2021/10/01 11:17:25;;;;;;;4.20;0.77;;;;;;;;;;6174773;28;20547;-87
2021/10/01 11:20:34;;;;;;;1.67;0.63;;;;;;;;;;6195552;28;20051;-86
2021/10/01 11:23:36;;;;;;;2.40;0.70;;;;;;;;;;6193468;28;20050;-86
2021/10/01 11:26:43;;;;;;;1.50;0.60;;;;;;;;;;6191616;28;20124;-84
2021/10/01 11:29:45;;;;;;;6.07;0.65;;;;;;;;;;6198325;28;20042;-85
2021/10/01 11:32:47;;;;;;;2.53;0.60;;;;;;;;;;6184900;28;20057;-83
2021/10/01 11:35:55;;;;;;;1.77;0.50;;;;;;;;;;6189013;28;20046;-84
2021/10/01 11:39:04;;;;;;;1.15;0.60;;;;;;;;;;6186693;28;20209;-81
2021/10/01 11:42:06;;;;;;;1.25;0.50;;;;;;;;;;6184849;28;20420;-85
2021/10/01 11:45:12;;;;;;;2.42;0.60;;;;;;;;;;6193252;28;20089;-84
2021/10/01 11:48:14;;;;;;;1.13;0.50;;;;;;;;;;6192910;28;20054;-86
2021/10/01 11:51:16;;;;;;;0.50;0.50;;;;;;;;;;6192340;28;20078;-83
2021/10/01 11:54:18;;;;;;;2.10;0.40;;;;;;;;;;6191828;28;20038;-83
2021/10/01 11:57:20;;;;;;;1.40;0.50;;;;;;;;;;6172295;28;20050;-85
2021/10/01 12:00:22;;;;;;;2.20;0.50;;;;;;;;;;6194164;28;20042;-85
2021/10/01 12:03:24;;;;;;;1.75;0.60;;;;;;;;;;6189895;28;20121;-84
2021/10/01 12:06:30;;;;;;;3.50;0.52;;;;;;;;;;6195621;28;20504;-86
2021/10/01 12:09:33;;;;;;;0.88;0.52;;;;;;;;;;6226295;28;20638;-86
2021/10/01 12:12:34;;;;;;;2.67;0.43;;;;;;;;;;6180594;28;20065;-85
2021/10/01 12:15:45;;;;;;;0.77;0.50;;;;;;;;;;6209023;28;20060;-84
2021/10/01 12:18:59;;;;;;;1.85;0.35;;;;;;;;;;6192647;28;20053;-83
2021/10/01 12:22:13;;;;;;;1.50;0.50;;;;;;;;;;6207960;28;20452;-85
2021/10/01 12:25:25;;;;;;;0.50;0.30;;;;;;;;;;6191275;28;20046;-83
2021/10/01 12:28:27;;;;;;;0.55;0.30;;;;;;;;;;6199231;28;20058;-86
2021/10/01 12:31:35;;;;;;;0.90;0.30;;;;;;;;;;6191128;28;20058;-85
2021/10/01 12:34:41;;;;;;;1.23;0.45;;;;;;;;;;6191542;28;20050;-86
2021/10/01 12:37:43;;;;;;;0.98;0.30;;;;;;;;;;6193951;28;20053;-87
2021/10/01 12:40:45;;;;;;;1.60;0.20;;;;;;;;;;6203682;28;20049;-85
2021/10/01 12:43:50;;;;;;;1.13;0.30;;;;;;;;;;6193764;28;20047;-84
2021/10/01 12:46:54;;;;;;;2.47;0.40;;;;;;;;;;6193767;28;20647;-85
2021/10/01 12:50:02;;;;;;;1.80;0.40;;;;;;;;;;6209103;28;20042;-83
2021/10/01 12:53:06;;;;;;;1.23;0.50;;;;;;;;;;6193174;28;20089;-85
2021/10/01 12:56:18;;;;;;;2.10;0.40;;;;;;;;;;6226129;28;20039;-85
2021/10/01 12:59:40;;;;;;;1.35;0.47;;;;;;;;;;6175943;28;20416;-86
2021/10/01 13:02:43;;;;;;;1.27;0.50;;;;;;;;;;6210480;28;20050;-84
2021/10/01 13:05:45;;;;;;;1.90;0.50;;;;;;;;;;6207935;28;20057;-83
2021/10/01 13:08:47;;;;;;;0.63;0.60;;;;;;;;;;6208139;28;20057;-86
2021/10/01 13:11:50;;;;;;;0.88;0.40;;;;;;;;;;6190931;28;20038;-84
2021/10/01 13:15:12;;;;;;;2.55;0.90;;;;;;;;;;6209072;28;20047;-88
2021/10/01 13:18:42;;;;;;;2.42;0.60;;;;;;;;;;6181480;28;20046;-87
2021/10/01 13:21:55;;;;;;;2.13;0.60;;;;;;;;;;6217233;28;20046;-86
2021/10/01 13:24:56;;;;;;;1.50;0.50;;;;;;;;;;6185844;28;20054;-87
2021/10/01 13:28:00;;;;;;;2.47;0.43;;;;;;;;;;6205221;28;21220;-84
2021/10/01 13:31:01;;;;;;;0.82;0.60;;;;;;;;;;6186155;28;20042;-86
2021/10/01 13:34:04;;;;;;;1.45;0.50;;;;;;;;;;6212021;28;20046;-86
2021/10/01 13:37:05;;;;;;;1.23;0.57;;;;;;;;;;6197538;28;20129;-86
2021/10/01 13:40:07;;;;;;;2.75;0.93;;;;;;;;;;6231919;28;20048;-85
2021/10/01 13:43:09;;;;;;;2.83;0.90;;;;;;;;;;6195473;28;20105;-86
2021/10/01 13:46:13;;;;;;;2.10;0.70;;;;;;;;;;6181515;28;20054;-84
2021/10/01 13:49:15;;;;;;;1.38;0.57;;;;;;;;;;6199718;28;20038;-85
2021/10/01 13:52:18;;;;;;;1.52;0.70;;;;;;;;;;6198395;28;20478;-85
2021/10/01 13:55:19;;;;;;;1.55;0.68;;;;;;;;;;6198888;28;20056;-82
2021/10/01 13:58:26;;;;;;;2.25;0.52;;;;;;;;;;6230495;28;20054;-84
2021/10/01 14:01:29;;;;;;;1.10;0.50;;;;;;;;;;6196565;28;20050;-86
2021/10/01 14:04:31;;;;;;;1.92;0.60;;;;;;;;;;6191574;28;20067;-83
2021/10/01 14:07:33;;;;;;;1.13;0.68;;;;;;;;;;6199134;28;20104;-87
2021/10/01 14:10:36;;;;;;;0.98;0.60;;;;;;;;;;6233045;28;20508;-83
2021/10/01 14:13:38;;;;;;;2.28;0.88;;;;;;;;;;6208895;28;20050;-85
2021/10/01 14:16:39;;;;;;;2.55;0.80;;;;;;;;;;6189418;28;20050;-84
2021/10/01 14:19:42;;;;;;;3.25;1.00;;;;;;;;;;6191959;28;20133;-87
2021/10/01 14:22:45;;;;;;;1.27;0.90;;;;;;;;;;6172987;28;20100;-83
2021/10/01 14:25:47;;;;;;;2.05;1.00;;;;;;;;;;6184052;28;20046;-84
2021/10/01 14:28:48;;;;;;;4.13;1.13;;;;;;;;;;6188394;28;20631;-82
2021/10/01 14:31:50;;;;;;;2.50;1.00;;;;;;;;;;6190198;28;20504;-84
2021/10/01 14:34:52;;;;;;;1.73;1.02;;;;;;;;;;6196973;28;20101;-85
2021/10/01 14:37:54;;;;;;;4.30;1.42;;;;;;;;;;6188987;28;20482;-82
2021/10/01 14:40:57;;;;;;;1.88;1.00;;;;;;;;;;6170362;28;20185;-83
2021/10/01 14:44:05;;;;;;;3.17;1.30;;;;;;;;;;6190452;28;20042;-84
2021/10/01 14:47:07;;;;;;;2.08;1.15;;;;;;;;;;6217317;28;20137;-84
2021/10/01 14:50:11;;;;;;;1.95;1.20;;;;;;;;;;6189565;28;20047;-85
2021/10/01 14:53:13;;;;;;;3.40;1.40;;;;;;;;;;6184724;28;20050;-85
2021/10/01 14:56:14;;;;;;;2.08;1.20;;;;;;;;;;6188815;28;20051;-84
2021/10/01 14:59:16;;;;;;;2.22;1.20;;;;;;;;;;6191655;28;20047;-83
2021/10/01 15:02:18;;;;;;;4.10;1.52;;;;;;;;;;6221571;28;20100;-83
2021/10/01 15:05:20;;;;;;;2.45;1.38;;;;;;;;;;6193491;28;20076;-84
2021/10/01 15:08:23;;;;;;;1.67;1.00;;;;;;;;;;6193328;28;20463;-84
2021/10/01 15:11:24;;;;;;;1.60;0.98;;;;;;;;;;6176409;28;20157;-85
2021/10/01 15:14:26;;;;;;;2.65;1.30;;;;;;;;;;6221660;28;20397;-82
2021/10/01 15:17:27;;;;;;;4.05;1.23;;;;;;;;;;6196738;28;20562;-82
2021/10/01 15:20:29;;;;;;;2.25;1.13;;;;;;;;;;6230324;28;20049;-83
2021/10/01 15:23:31;;;;;;;3.13;1.40;;;;;;;;;;6198322;28;20106;-82
2021/10/01 15:26:32;;;;;;;1.90;1.35;;;;;;;;;;6190584;28;20114;-80
2021/10/01 15:30:07;;;;;;;1.58;1.13;;;;;;;;;;6192462;28;20251;-83
2021/10/01 15:33:09;;;;;;;1.92;1.25;;;;;;;;;;6182166;28;20441;-82
2021/10/01 15:36:11;;;;;;;3.28;1.40;;;;;;;;;;6191035;28;20051;-82
2021/10/01 15:39:12;;;;;;;2.10;1.20;;;;;;;;;;6194530;28;20057;-83
2021/10/01 15:42:14;;;;;;;5.00;1.33;;;;;;;;;;6200281;28;20071;-84
2021/10/01 15:45:18;;;;;;;5.60;1.73;;;;;;;;;;6193255;28;20885;-82
2021/10/01 15:48:21;;;;;;;3.70;1.15;;;;;;;;;;6187230;28;20126;-85
2021/10/01 15:51:23;;;;;;;2.58;1.48;;;;;;;;;;6227258;28;20050;-84
2021/10/01 15:54:25;;;;;;;3.75;1.55;;;;;;;;;;6181992;28;20107;-84
2021/10/01 15:57:26;;;;;;;3.13;2.35;;;;;;;;;;6186165;28;20054;-85
2021/10/01 16:00:28;;;;;;;3.15;2.10;;;;;;;;;;6197040;28;20112;-84
2021/10/01 16:03:30;;;;;;;23.38;11.00;;;;;;;;;;6192047;28;20420;-83
2021/10/01 16:06:32;;;;;;;18.13;9.27;;;;;;;;;;6189316;28;20161;-83
2021/10/01 16:09:33;;;;;;;26.20;13.45;;;;;;;;;;6192881;28;20058;-82
2021/10/01 16:12:37;;;;;;;40.25;19.58;;;;;;;;;;6214603;28;20117;-82
2021/10/01 16:15:38;;;;;;;40.92;23.38;;;;;;;;;;6209333;28;20153;-82
2021/10/01 16:18:40;;;;;;;25.25;12.05;;;;;;;;;;6186909;28;20117;-83
2021/10/01 16:21:42;;;;;;;24.88;11.43;;;;;;;;;;6186437;28;20118;-83
2021/10/01 16:24:49;;;;;;;18.75;10.38;;;;;;;;;;6176879;28;20052;-84
2021/10/01 16:27:58;;;;;;;20.85;12.68;;;;;;;;;;6189932;28;20125;-83
2021/10/01 16:31:00;;;;;;;15.68;9.27;;;;;;;;;;6187572;28;20078;-84
2021/10/01 16:34:01;;;;;;;9.00;4.88;;;;;;;;;;6205316;28;20568;-83
2021/10/01 16:37:04;;;;;;;6.00;3.05;;;;;;;;;;6211592;28;20065;-84
2021/10/01 16:40:07;;;;;;;3.88;3.40;;;;;;;;;;6195202;28;20093;-84
2021/10/01 16:43:14;;;;;;;7.97;3.65;;;;;;;;;;6207113;28;20113;-84
2021/10/01 16:46:16;;;;;;;4.43;2.58;;;;;;;;;;6211651;28;20035;-84
2021/10/01 16:49:18;;;;;;;3.85;1.70;;;;;;;;;;6211094;28;20042;-84
2021/10/01 16:52:20;;;;;;;3.05;1.98;;;;;;;;;;6235309;28;20038;-83
2021/10/01 16:55:22;;;;;;;3.33;1.70;;;;;;;;;;6183534;28;20057;-84
2021/10/01 16:58:23;;;;;;;2.90;1.52;;;;;;;;;;6235209;28;20121;-84
2021/10/01 17:01:25;;;;;;;3.33;2.40;;;;;;;;;;6181520;28;21144;-83
2021/10/01 17:04:27;;;;;;;4.45;1.88;;;;;;;;;;6199809;28;20052;-83
2021/10/01 17:07:30;;;;;;;4.10;2.03;;;;;;;;;;6198412;28;20034;-83
2021/10/01 17:10:31;;;;;;;5.00;3.25;;;;;;;;;;6196976;28;20051;-84
2021/10/01 17:13:33;;;;;;;3.63;2.53;;;;;;;;;;6218656;28;20058;-83
2021/10/01 17:16:35;;;;;;;5.20;2.13;;;;;;;;;;6203283;28;20057;-83
2021/10/01 17:19:36;;;;;;;4.22;1.63;;;;;;;;;;6202036;28;20133;-81
2021/10/01 17:22:38;;;;;;;4.60;1.60;;;;;;;;;;6203984;28;20122;-83
2021/10/01 17:25:40;;;;;;;4.43;2.92;;;;;;;;;;6206737;28;20130;-83
2021/10/01 17:28:41;;;;;;;6.32;4.05;;;;;;;;;;6227309;28;20132;-84
2021/10/01 17:31:45;;;;;;;5.78;3.00;;;;;;;;;;6236698;28;20375;-83
2021/10/01 17:34:47;;;;;;;4.32;3.30;;;;;;;;;;6206957;28;20061;-83
2021/10/01 17:37:49;;;;;;;8.73;5.93;;;;;;;;;;6208050;28;20058;-84
2021/10/01 17:40:50;;;;;;;9.50;5.57;;;;;;;;;;6202841;28;20054;-83
2021/10/01 17:43:52;;;;;;;4.40;3.33;;;;;;;;;;6192428;28;20125;-82
2021/10/01 17:46:56;;;;;;;5.55;4.70;;;;;;;;;;6177142;28;20521;-83
2021/10/01 17:49:58;;;;;;;3.83;3.20;;;;;;;;;;6195877;28;20046;-82
2021/10/01 17:53:02;;;;;;;3.90;2.55;;;;;;;;;;6196720;28;20049;-83
2021/10/01 17:56:03;;;;;;;;;;;;;;;;;;6186687;28;20057;-82
2021/10/01 17:59:05;;;;;;;7.13;5.07;;;;;;;;;;6176269;28;20027;-83
2021/10/01 18:02:09;;;;;;;5.15;2.95;;;;;;;;;;6194177;28;20122;-83
2021/10/01 18:05:12;;;;;;;5.32;3.10;;;;;;;;;;6195211;28;20057;-83
2021/10/01 18:08:15;;;;;;;4.57;3.17;;;;;;;;;;6197261;28;20109;-82
2021/10/01 18:11:20;;;;;;;2.60;1.98;;;;;;;;;;6190894;28;20096;-82
2021/10/01 18:14:22;;;;;;;4.93;2.88;;;;;;;;;;6188108;28;20121;-84
2021/10/01 18:17:24;;;;;;;6.10;3.15;;;;;;;;;;6207912;28;20042;-86
2021/10/01 18:20:31;;;;;;;6.20;4.60;;;;;;;;;;6196066;28;20050;-85
2021/10/01 18:23:40;;;;;;;7.03;3.00;;;;;;;;;;6190394;28;20046;-84
2021/10/01 18:26:43;;;;;;;5.65;3.78;;;;;;;;;;6182860;28;20057;-84
2021/10/01 18:29:44;;;;;;;7.68;4.20;;;;;;;;;;6192389;28;20046;-85
2021/10/01 18:32:48;;;;;;;10.30;3.05;;;;;;;;;;6173300;28;20042;-86
2021/10/01 18:35:53;;;;;;;6.25;4.00;;;;;;;;;;6164540;28;20054;-86
2021/10/01 18:39:18;;;;;;;8.48;3.40;;;;;;;;;;6153406;28;20056;-86
2021/10/01 18:43:16;;;;;;;11.05;6.03;;;;;;;;;;6076054;28;20114;-85
2021/10/01 18:47:11;;;;;;;23.00;13.65;;;;;;;;;;6121713;28;20046;-88
2021/10/01 18:50:22;;;;;;;13.13;8.85;;;;;;;;;;6194493;28;20105;-85
2021/10/01 18:53:30;;;;;;;9.80;5.23;;;;;;;;;;6191345;28;20089;-86
2021/10/01 18:56:32;;;;;;;9.10;4.03;;;;;;;;;;6192641;28;20221;-84
2021/10/01 18:59:34;;;;;;;5.05;3.83;;;;;;;;;;6196627;28;20103;-87
2021/10/01 19:02:36;;;;;;;4.85;3.40;;;;;;;;;;6193033;28;20131;-88
2021/10/01 19:05:39;;;;;;;6.57;3.50;;;;;;;;;;6203672;28;20189;-87
2021/10/01 19:08:42;;;;;;;6.75;4.15;;;;;;;;;;6191453;28;20101;-86
2021/10/01 19:11:43;;;;;;;6.50;3.90;;;;;;;;;;6205066;28;20073;-85
2021/10/01 19:14:45;;;;;;;5.70;2.92;;;;;;;;;;6191247;28;20050;-86
2021/10/01 19:17:47;;;;;;;6.05;3.67;;;;;;;;;;6190163;28;20060;-85
2021/10/01 19:20:55;;;;;;;5.80;3.63;;;;;;;;;;6191089;28;20053;-87
2021/10/01 19:24:04;;;;;;;5.75;3.58;;;;;;;;;;6210106;28;20121;-86
2021/10/01 19:27:18;;;;;;;8.98;4.43;;;;;;;;;;6197304;28;20054;-86
2021/10/01 19:33:24;;;;;;;7.05;3.92;;;;;;;;;;6220533;28;20038;-85
2021/10/01 19:36:28;;;;;;;5.93;4.30;;;;;;;;;;6207299;28;20104;-85
2021/10/01 19:39:32;;;;;;;5.57;3.95;;;;;;;;;;6192875;28;20608;-87
2021/10/01 19:42:34;;;;;;;6.53;3.67;;;;;;;;;;6191115;28;20054;-84
2021/10/01 19:45:39;;;;;;;7.50;3.83;;;;;;;;;;6177729;28;20046;-86
2021/10/01 19:48:42;;;;;;;8.30;5.28;;;;;;;;;;6201819;28;20043;-85
2021/10/01 19:51:53;;;;;;;10.77;5.05;;;;;;;;;;6203785;28;20120;-84
2021/10/01 19:55:21;;;;;;;9.55;5.10;;;;;;;;;;6189542;28;20078;-87
2021/10/01 19:58:27;;;;;;;10.32;6.22;;;;;;;;;;6161641;28;20053;-87
2021/10/01 20:01:30;;;;;;;14.40;7.22;;;;;;;;;;6192075;28;20128;-85